sensor_id;sensor_type;location;lat;lon;timestamp;P1;durP1;ratioP1;P2;durP2;ratioP2
58974;SDS011;44751;52.236;5.178;2022-08-03T00:10:52;5.47;;;1.50;;
58974;SDS011;44751;52.236;5.178;2022-08-03T00:13:19;5.32;;;1.50;;
58974;SDS011;44751;52.236;5.178;2022-08-03T00:15:45;5.93;;;1.88;;
58974;SDS011;44751;52.236;5.178;2022-08-03T00:18:15;6.22;;;1.75;;
58974;SDS011;44751;52.236;5.178;2022-08-03T00:20:41;7.03;;;1.60;;
58974;SDS011;44751;52.236;5.178;2022-08-03T00:23:10;4.88;;;1.67;;
58974;SDS011;44751;52.236;5.178;2022-08-03T00:25:41;6.97;;;1.73;;
58974;SDS011;44751;52.236;5.178;2022-08-03T00:28:33;6.88;;;1.70;;
58974;SDS011;44751;52.236;5.178;2022-08-03T00:31:00;3.92;;;1.80;;
58974;SDS011;44751;52.236;5.178;2022-08-03T00:33:27;5.28;;;1.35;;
58974;SDS011;44751;52.236;5.178;2022-08-03T00:59:22;4.50;;;1.50;;
58974;SDS011;44751;52.236;5.178;2022-08-03T01:01:57;6.63;;;1.70;;
58974;SDS011;44751;52.236;5.178;2022-08-03T01:04:32;5.30;;;1.48;;
58974;SDS011;44751;52.236;5.178;2022-08-03T01:07:05;8.32;;;1.80;;
58974;SDS011;44751;52.236;5.178;2022-08-03T04:25:41;8.25;;;2.60;;
58974;SDS011;44751;52.236;5.178;2022-08-03T04:28:09;10.90;;;2.80;;
58974;SDS011;44751;52.236;5.178;2022-08-03T04:33:33;10.43;;;3.47;;
58974;SDS011;44751;52.236;5.178;2022-08-03T04:36:03;11.35;;;2.88;;
58974;SDS011;44751;52.236;5.178;2022-08-03T04:38:39;10.10;;;3.22;;
58974;SDS011;44751;52.236;5.178;2022-08-03T04:41:29;10.13;;;3.42;;
58974;SDS011;44751;52.236;5.178;2022-08-03T04:44:12;6.47;;;3.10;;
58974;SDS011;44751;52.236;5.178;2022-08-03T04:46:49;12.45;;;3.08;;
58974;SDS011;44751;52.236;5.178;2022-08-03T04:49:20;11.60;;;3.30;;
58974;SDS011;44751;52.236;5.178;2022-08-03T04:51:48;11.65;;;3.10;;
58974;SDS011;44751;52.236;5.178;2022-08-03T04:54:15;11.32;;;3.20;;
58974;SDS011;44751;52.236;5.178;2022-08-03T04:56:42;9.48;;;2.85;;
58974;SDS011;44751;52.236;5.178;2022-08-03T04:59:18;9.18;;;2.97;;
58974;SDS011;44751;52.236;5.178;2022-08-03T05:09:30;9.80;;;2.75;;
58974;SDS011;44751;52.236;5.178;2022-08-03T05:12:05;11.02;;;2.83;;
58974;SDS011;44751;52.236;5.178;2022-08-03T05:14:37;8.63;;;2.80;;
58974;SDS011;44751;52.236;5.178;2022-08-03T05:17:07;11.80;;;3.47;;
58974;SDS011;44751;52.236;5.178;2022-08-03T05:19:34;14.25;;;3.22;;
58974;SDS011;44751;52.236;5.178;2022-08-03T05:22:19;14.13;;;3.40;;
58974;SDS011;44751;52.236;5.178;2022-08-03T05:24:46;12.73;;;3.10;;
58974;SDS011;44751;52.236;5.178;2022-08-03T05:27:15;13.10;;;2.95;;
58974;SDS011;44751;52.236;5.178;2022-08-03T05:29:52;10.80;;;2.97;;
58974;SDS011;44751;52.236;5.178;2022-08-03T05:32:19;10.63;;;3.13;;
58974;SDS011;44751;52.236;5.178;2022-08-03T05:34:46;10.38;;;3.33;;
58974;SDS011;44751;52.236;5.178;2022-08-03T05:37:15;11.50;;;3.10;;
58974;SDS011;44751;52.236;5.178;2022-08-03T05:39:57;13.10;;;3.33;;
58974;SDS011;44751;52.236;5.178;2022-08-03T05:42:23;8.80;;;3.13;;
58974;SDS011;44751;52.236;5.178;2022-08-03T05:45:03;16.08;;;3.45;;
58974;SDS011;44751;52.236;5.178;2022-08-03T16:28:50;5.40;;;1.30;;
58974;SDS011;44751;52.236;5.178;2022-08-03T16:31:17;5.57;;;1.40;;
58974;SDS011;44751;52.236;5.178;2022-08-03T16:33:47;4.55;;;1.10;;
58974;SDS011;44751;52.236;5.178;2022-08-03T19:10:39;4.40;;;1.63;;
58974;SDS011;44751;52.236;5.178;2022-08-03T19:15:46;4.15;;;1.63;;
58974;SDS011;44751;52.236;5.178;2022-08-03T19:18:25;4.40;;;1.50;;
58974;SDS011;44751;52.236;5.178;2022-08-03T19:21:07;4.20;;;1.75;;
58974;SDS011;44751;52.236;5.178;2022-08-03T19:23:46;3.38;;;1.30;;
58974;SDS011;44751;52.236;5.178;2022-08-03T19:26:25;2.97;;;1.30;;
58974;SDS011;44751;52.236;5.178;2022-08-03T19:28:54;3.70;;;1.10;;
58974;SDS011;44751;52.236;5.178;2022-08-03T19:31:27;3.05;;;1.35;;
58974;SDS011;44751;52.236;5.178;2022-08-03T19:36:30;4.55;;;1.60;;
58974;SDS011;44751;52.236;5.178;2022-08-03T19:38:59;2.60;;;1.30;;
58974;SDS011;44751;52.236;5.178;2022-08-03T19:47:44;3.35;;;1.40;;
58974;SDS011;44751;52.236;5.178;2022-08-03T19:50:16;6.70;;;1.60;;
58974;SDS011;44751;52.236;5.178;2022-08-03T19:52:46;3.20;;;1.80;;
58974;SDS011;44751;52.236;5.178;2022-08-03T19:55:21;5.15;;;2.00;;
58974;SDS011;44751;52.236;5.178;2022-08-03T19:57:55;3.85;;;1.80;;
58974;SDS011;44751;52.236;5.178;2022-08-03T20:00:39;4.55;;;1.60;;
58974;SDS011;44751;52.236;5.178;2022-08-03T20:03:06;3.90;;;1.50;;
58974;SDS011;44751;52.236;5.178;2022-08-03T20:05:34;4.75;;;1.92;;
58974;SDS011;44751;52.236;5.178;2022-08-03T20:08:02;4.93;;;1.63;;
58974;SDS011;44751;52.236;5.178;2022-08-03T20:10:31;3.95;;;1.58;;
58974;SDS011;44751;52.236;5.178;2022-08-03T20:12:58;4.15;;;1.50;;
58974;SDS011;44751;52.236;5.178;2022-08-03T20:15:25;4.57;;;1.65;;
58974;SDS011;44751;52.236;5.178;2022-08-03T20:17:52;5.25;;;1.90;;
58974;SDS011;44751;52.236;5.178;2022-08-03T20:20:33;3.30;;;1.60;;
58974;SDS011;44751;52.236;5.178;2022-08-03T20:23:04;4.60;;;1.73;;
58974;SDS011;44751;52.236;5.178;2022-08-03T20:25:46;4.03;;;1.83;;
58974;SDS011;44751;52.236;5.178;2022-08-03T20:28:17;6.78;;;2.13;;
58974;SDS011;44751;52.236;5.178;2022-08-03T20:31:08;5.25;;;2.03;;
58974;SDS011;44751;52.236;5.178;2022-08-03T20:33:35;6.18;;;2.13;;
58974;SDS011;44751;52.236;5.178;2022-08-03T20:36:01;4.45;;;1.80;;
58974;SDS011;44751;52.236;5.178;2022-08-03T20:38:41;4.63;;;2.30;;
58974;SDS011;44751;52.236;5.178;2022-08-03T20:41:08;4.03;;;2.10;;
58974;SDS011;44751;52.236;5.178;2022-08-03T20:43:34;7.07;;;2.25;;
58974;SDS011;44751;52.236;5.178;2022-08-03T20:46:01;5.03;;;2.38;;
58974;SDS011;44751;52.236;5.178;2022-08-03T20:48:27;6.40;;;2.42;;
58974;SDS011;44751;52.236;5.178;2022-08-03T20:50:55;5.85;;;2.50;;
58974;SDS011;44751;52.236;5.178;2022-08-03T20:53:22;4.82;;;2.45;;
58974;SDS011;44751;52.236;5.178;2022-08-03T20:55:58;5.28;;;2.10;;
58974;SDS011;44751;52.236;5.178;2022-08-03T20:58:26;4.35;;;2.20;;
58974;SDS011;44751;52.236;5.178;2022-08-03T21:00:52;5.90;;;2.17;;
58974;SDS011;44751;52.236;5.178;2022-08-03T21:03:20;4.05;;;2.25;;
58974;SDS011;44751;52.236;5.178;2022-08-03T21:05:47;4.40;;;2.42;;
58974;SDS011;44751;52.236;5.178;2022-08-03T21:08:21;6.05;;;2.78;;
58974;SDS011;44751;52.236;5.178;2022-08-03T21:10:52;5.22;;;2.58;;
58974;SDS011;44751;52.236;5.178;2022-08-03T21:16:19;5.40;;;2.72;;
58974;SDS011;44751;52.236;5.178;2022-08-03T21:18:51;3.88;;;2.50;;
58974;SDS011;44751;52.236;5.178;2022-08-03T21:21:19;5.38;;;2.60;;
58974;SDS011;44751;52.236;5.178;2022-08-03T21:26:37;3.38;;;2.60;;
58974;SDS011;44751;52.236;5.178;2022-08-03T21:29:04;4.60;;;2.90;;
58974;SDS011;44751;52.236;5.178;2022-08-03T21:31:32;5.30;;;3.13;;
58974;SDS011;44751;52.236;5.178;2022-08-03T21:33:59;5.47;;;3.05;;
58974;SDS011;44751;52.236;5.178;2022-08-03T21:36:29;5.35;;;3.13;;
58974;SDS011;44751;52.236;5.178;2022-08-03T21:41:49;6.60;;;3.80;;
58974;SDS011;44751;52.236;5.178;2022-08-03T21:44:15;5.75;;;3.10;;
58974;SDS011;44751;52.236;5.178;2022-08-03T21:46:43;4.65;;;2.78;;
58974;SDS011;44751;52.236;5.178;2022-08-03T21:49:10;5.90;;;2.60;;
58974;SDS011;44751;52.236;5.178;2022-08-03T21:51:37;7.30;;;2.97;;
58974;SDS011;44751;52.236;5.178;2022-08-03T21:54:07;5.05;;;2.20;;
58974;SDS011;44751;52.236;5.178;2022-08-03T21:56:44;4.40;;;2.30;;
58974;SDS011;44751;52.236;5.178;2022-08-03T21:59:16;4.85;;;2.30;;
58974;SDS011;44751;52.236;5.178;2022-08-03T22:01:44;4.07;;;2.38;;
58974;SDS011;44751;52.236;5.178;2022-08-03T22:04:14;5.28;;;2.25;;
58974;SDS011;44751;52.236;5.178;2022-08-03T22:06:44;4.93;;;2.28;;
58974;SDS011;44751;52.236;5.178;2022-08-03T22:09:11;4.63;;;2.17;;
58974;SDS011;44751;52.236;5.178;2022-08-03T22:11:37;3.97;;;2.20;;
58974;SDS011;44751;52.236;5.178;2022-08-03T22:14:05;3.38;;;2.17;;
58974;SDS011;44751;52.236;5.178;2022-08-03T22:16:34;3.17;;;2.00;;
58974;SDS011;44751;52.236;5.178;2022-08-03T22:19:01;5.03;;;1.88;;
58974;SDS011;44751;52.236;5.178;2022-08-03T22:21:28;5.20;;;2.25;;
58974;SDS011;44751;52.236;5.178;2022-08-03T22:23:56;5.18;;;1.98;;
58974;SDS011;44751;52.236;5.178;2022-08-03T22:26:27;4.53;;;2.00;;
58974;SDS011;44751;52.236;5.178;2022-08-03T22:28:56;4.38;;;2.00;;
58974;SDS011;44751;52.236;5.178;2022-08-03T22:31:24;3.63;;;1.90;;
58974;SDS011;44751;52.236;5.178;2022-08-03T22:33:51;4.28;;;2.28;;
58974;SDS011;44751;52.236;5.178;2022-08-03T22:36:19;5.38;;;2.47;;
58974;SDS011;44751;52.236;5.178;2022-08-03T22:38:51;7.68;;;2.58;;
58974;SDS011;44751;52.236;5.178;2022-08-03T22:41:18;4.95;;;2.10;;
58974;SDS011;44751;52.236;5.178;2022-08-03T22:43:48;5.18;;;2.30;;
58974;SDS011;44751;52.236;5.178;2022-08-03T22:46:15;5.28;;;2.10;;
58974;SDS011;44751;52.236;5.178;2022-08-03T22:48:46;4.07;;;2.35;;
58974;SDS011;44751;52.236;5.178;2022-08-03T22:51:13;3.47;;;2.15;;
58974;SDS011;44751;52.236;5.178;2022-08-03T22:53:40;6.57;;;2.13;;
58974;SDS011;44751;52.236;5.178;2022-08-03T22:56:07;6.07;;;2.53;;
58974;SDS011;44751;52.236;5.178;2022-08-03T22:58:33;6.55;;;2.40;;
58974;SDS011;44751;52.236;5.178;2022-08-03T23:01:05;4.68;;;2.40;;
58974;SDS011;44751;52.236;5.178;2022-08-03T23:03:34;3.60;;;2.17;;
58974;SDS011;44751;52.236;5.178;2022-08-03T23:06:02;5.38;;;2.50;;
58974;SDS011;44751;52.236;5.178;2022-08-03T23:08:30;5.50;;;2.45;;
58974;SDS011;44751;52.236;5.178;2022-08-03T23:11:01;3.65;;;2.28;;
58974;SDS011;44751;52.236;5.178;2022-08-03T23:13:32;5.75;;;2.42;;
58974;SDS011;44751;52.236;5.178;2022-08-03T23:15:59;6.45;;;2.35;;
58974;SDS011;44751;52.236;5.178;2022-08-03T23:18:31;3.40;;;2.15;;
58974;SDS011;44751;52.236;5.178;2022-08-03T23:21:06;4.88;;;2.20;;
58974;SDS011;44751;52.236;5.178;2022-08-03T23:23:34;5.53;;;2.25;;
58974;SDS011;44751;52.236;5.178;2022-08-03T23:26:02;5.25;;;2.20;;
58974;SDS011;44751;52.236;5.178;2022-08-03T23:28:44;4.82;;;2.25;;
58974;SDS011;44751;52.236;5.178;2022-08-03T23:31:12;2.90;;;2.17;;
58974;SDS011;44751;52.236;5.178;2022-08-03T23:33:40;5.55;;;2.40;;
58974;SDS011;44751;52.236;5.178;2022-08-03T23:36:10;2.88;;;1.92;;
58974;SDS011;44751;52.236;5.178;2022-08-03T23:38:41;4.88;;;2.50;;
58974;SDS011;44751;52.236;5.178;2022-08-03T23:41:09;5.78;;;2.30;;
58974;SDS011;44751;52.236;5.178;2022-08-03T23:43:51;4.93;;;2.38;;
58974;SDS011;44751;52.236;5.178;2022-08-03T23:46:18;4.50;;;2.03;;
58974;SDS011;44751;52.236;5.178;2022-08-03T23:48:46;4.70;;;2.17;;
58974;SDS011;44751;52.236;5.178;2022-08-03T23:51:18;3.58;;;2.20;;
58974;SDS011;44751;52.236;5.178;2022-08-03T23:57:05;5.95;;;2.70;;
